Kincaid, Canada
Current Conditions -  °F | °C
As of 1:03 AM on Monday 22 Dec 2014 (Local Time) from CYYN Reporting Station
Light Snow Light Snow  
Wind Chill:   Ceiling: 2200
Heat Index: 21°   Visibility: 2.2mi
Dew Point: 19°   Wind: 17mph
Humidity: 93%   Direction: 300°WNW
Pressure: 29.51"   Gusts: 24mph
Location:  49.67°N, 107°W
Report Text: CYYN 220703Z AUTO 30015G21KT 2 1/4SM -SN SCT005 BKN022 OVC027 M06/M07 A2951 RMK SLP027
Loading
Personal Weather Stations






























Interactive Weather Map New forecast layout! Learn more

10-Day Weather Forecast

Advertisements
Track Severe Weather on mobile